sensor_id;sensor_type;location;lat;lon;timestamp;temperature;humidity
13585;DHT22;6863;48.402;9.994;2023-02-18T00:00:08;9.90;99.90
13585;DHT22;6863;48.402;9.994;2023-02-18T00:02:34;9.90;99.90
13585;DHT22;6863;48.402;9.994;2023-02-18T00:05:00;9.90;99.90
13585;DHT22;6863;48.402;9.994;2023-02-18T00:07:25;10.00;99.90
13585;DHT22;6863;48.402;9.994;2023-02-18T00:09:51;10.00;99.90
13585;DHT22;6863;48.402;9.994;2023-02-18T00:12:16;10.00;99.90
13585;DHT22;6863;48.402;9.994;2023-02-18T00:14:42;10.00;99.90
13585;DHT22;6863;48.402;9.994;2023-02-18T00:17:08;10.10;99.90
13585;DHT22;6863;48.402;9.994;2023-02-18T00:19:33;10.00;99.90
13585;DHT22;6863;48.402;9.994;2023-02-18T00:21:59;10.00;99.90
13585;DHT22;6863;48.402;9.994;2023-02-18T00:24:24;10.10;99.90
13585;DHT22;6863;48.402;9.994;2023-02-18T00:26:51;10.10;99.90
13585;DHT22;6863;48.402;9.994;2023-02-18T00:29:17;10.00;99.90
13585;DHT22;6863;48.402;9.994;2023-02-18T00:31:43;10.10;99.90
13585;DHT22;6863;48.402;9.994;2023-02-18T00:34:09;10.00;99.90
13585;DHT22;6863;48.402;9.994;2023-02-18T00:36:35;10.00;99.90
13585;DHT22;6863;48.402;9.994;2023-02-18T00:39:07;10.10;99.90
13585;DHT22;6863;48.402;9.994;2023-02-18T00:41:34;10.10;99.90
13585;DHT22;6863;48.402;9.994;2023-02-18T00:44:00;10.10;99.90
13585;DHT22;6863;48.402;9.994;2023-02-18T00:46:26;10.10;99.90
13585;DHT22;6863;48.402;9.994;2023-02-18T00:48:53;10.20;99.90
13585;DHT22;6863;48.402;9.994;2023-02-18T00:51:19;10.20;99.90
13585;DHT22;6863;48.402;9.994;2023-02-18T00:53:45;10.20;99.90
13585;DHT22;6863;48.402;9.994;2023-02-18T00:56:11;10.20;99.90
13585;DHT22;6863;48.402;9.994;2023-02-18T00:58:37;10.00;99.90
13585;DHT22;6863;48.402;9.994;2023-02-18T01:01:04;10.10;99.90
13585;DHT22;6863;48.402;9.994;2023-02-18T01:03:30;10.10;99.90
13585;DHT22;6863;48.402;9.994;2023-02-18T01:05:56;10.00;99.90
13585;DHT22;6863;48.402;9.994;2023-02-18T01:08:21;10.00;99.90
13585;DHT22;6863;48.402;9.994;2023-02-18T01:10:49;9.90;99.90
13585;DHT22;6863;48.402;9.994;2023-02-18T01:13:16;9.80;99.90
13585;DHT22;6863;48.402;9.994;2023-02-18T01:15:42;9.80;99.90
13585;DHT22;6863;48.402;9.994;2023-02-18T01:18:09;9.70;99.90
13585;DHT22;6863;48.402;9.994;2023-02-18T01:20:36;9.70;99.90
13585;DHT22;6863;48.402;9.994;2023-02-18T01:23:02;9.60;99.90
13585;DHT22;6863;48.402;9.994;2023-02-18T01:25:28;9.60;99.90
13585;DHT22;6863;48.402;9.994;2023-02-18T01:27:54;9.60;99.90
13585;DHT22;6863;48.402;9.994;2023-02-18T01:30:20;9.60;99.90
13585;DHT22;6863;48.402;9.994;2023-02-18T01:32:46;9.50;99.90
13585;DHT22;6863;48.402;9.994;2023-02-18T01:35:14;9.40;99.90
13585;DHT22;6863;48.402;9.994;2023-02-18T01:37:40;9.40;99.90
13585;DHT22;6863;48.402;9.994;2023-02-18T01:40:08;9.40;99.90
13585;DHT22;6863;48.402;9.994;2023-02-18T01:42:34;9.40;99.90
13585;DHT22;6863;48.402;9.994;2023-02-18T01:48:19;9.30;99.90
13585;DHT22;6863;48.402;9.994;2023-02-18T01:50:53;9.30;99.90
13585;DHT22;6863;48.402;9.994;2023-02-18T01:53:28;9.30;99.90
13585;DHT22;6863;48.402;9.994;2023-02-18T01:55:56;9.20;99.90
13585;DHT22;6863;48.402;9.994;2023-02-18T01:58:23;9.20;99.90
13585;DHT22;6863;48.402;9.994;2023-02-18T02:00:49;9.20;99.90
13585;DHT22;6863;48.402;9.994;2023-02-18T02:03:14;9.20;99.90
13585;DHT22;6863;48.402;9.994;2023-02-18T02:05:40;9.20;99.90
13585;DHT22;6863;48.402;9.994;2023-02-18T02:08:06;9.20;99.90
13585;DHT22;6863;48.402;9.994;2023-02-18T02:16:37;9.30;99.90
13585;DHT22;6863;48.402;9.994;2023-02-18T02:19:38;9.30;99.90
13585;DHT22;6863;48.402;9.994;2023-02-18T02:22:39;9.20;99.90
13585;DHT22;6863;48.402;9.994;2023-02-18T02:28:15;9.20;99.90
13585;DHT22;6863;48.402;9.994;2023-02-18T02:31:16;9.20;99.90
13585;DHT22;6863;48.402;9.994;2023-02-18T02:36:42;9.20;99.90
13585;DHT22;6863;48.402;9.994;2023-02-18T02:44:38;9.10;99.90
13585;DHT22;6863;48.402;9.994;2023-02-18T02:47:16;9.10;99.90
13585;DHT22;6863;48.402;9.994;2023-02-18T02:52:22;9.00;99.90
13585;DHT22;6863;48.402;9.994;2023-02-18T02:54:48;9.00;99.90
13585;DHT22;6863;48.402;9.994;2023-02-18T02:59:46;8.90;99.90
13585;DHT22;6863;48.402;9.994;2023-02-18T03:15:39;8.90;99.90
13585;DHT22;6863;48.402;9.994;2023-02-18T03:18:28;8.90;99.90
13585;DHT22;6863;48.402;9.994;2023-02-18T03:21:05;8.90;99.90
13585;DHT22;6863;48.402;9.994;2023-02-18T03:23:42;9.00;99.90
13585;DHT22;6863;48.402;9.994;2023-02-18T03:26:10;9.00;99.90
13585;DHT22;6863;48.402;9.994;2023-02-18T03:28:37;8.90;99.90
13585;DHT22;6863;48.402;9.994;2023-02-18T03:31:13;8.90;99.90
13585;DHT22;6863;48.402;9.994;2023-02-18T03:33:48;8.90;99.90
13585;DHT22;6863;48.402;9.994;2023-02-18T03:36:17;9.00;99.90
13585;DHT22;6863;48.402;9.994;2023-02-18T03:38:53;9.00;99.90
13585;DHT22;6863;48.402;9.994;2023-02-18T03:41:21;9.00;99.90
13585;DHT22;6863;48.402;9.994;2023-02-18T03:43:58;9.10;99.90
13585;DHT22;6863;48.402;9.994;2023-02-18T03:46:26;9.20;99.90
13585;DHT22;6863;48.402;9.994;2023-02-18T03:48:51;9.20;99.90
13585;DHT22;6863;48.402;9.994;2023-02-18T03:51:18;9.30;99.90
13585;DHT22;6863;48.402;9.994;2023-02-18T03:53:44;9.20;99.90
13585;DHT22;6863;48.402;9.994;2023-02-18T03:56:10;9.20;99.90
13585;DHT22;6863;48.402;9.994;2023-02-18T03:58:35;9.30;99.90
13585;DHT22;6863;48.402;9.994;2023-02-18T04:01:01;9.20;99.90
13585;DHT22;6863;48.402;9.994;2023-02-18T04:03:27;9.20;99.90
13585;DHT22;6863;48.402;9.994;2023-02-18T04:05:52;9.20;99.90
13585;DHT22;6863;48.402;9.994;2023-02-18T04:08:18;9.20;99.90
13585;DHT22;6863;48.402;9.994;2023-02-18T04:10:43;9.20;99.90
13585;DHT22;6863;48.402;9.994;2023-02-18T04:13:09;9.20;99.90
13585;DHT22;6863;48.402;9.994;2023-02-18T04:15:34;9.20;99.90
13585;DHT22;6863;48.402;9.994;2023-02-18T04:18:01;9.10;99.90
13585;DHT22;6863;48.402;9.994;2023-02-18T04:20:27;9.10;99.90
13585;DHT22;6863;48.402;9.994;2023-02-18T04:22:52;9.10;99.90
13585;DHT22;6863;48.402;9.994;2023-02-18T04:25:18;9.10;99.90
13585;DHT22;6863;48.402;9.994;2023-02-18T04:27:43;9.10;99.90
13585;DHT22;6863;48.402;9.994;2023-02-18T04:30:09;9.20;99.90
13585;DHT22;6863;48.402;9.994;2023-02-18T04:32:35;9.20;99.90
13585;DHT22;6863;48.402;9.994;2023-02-18T04:35:01;9.20;99.90
13585;DHT22;6863;48.402;9.994;2023-02-18T04:37:27;9.20;99.90
13585;DHT22;6863;48.402;9.994;2023-02-18T04:39:53;9.10;99.90
13585;DHT22;6863;48.402;9.994;2023-02-18T04:42:18;9.10;99.90
13585;DHT22;6863;48.402;9.994;2023-02-18T04:44:44;9.10;99.90
13585;DHT22;6863;48.402;9.994;2023-02-18T04:47:09;9.10;99.90
13585;DHT22;6863;48.402;9.994;2023-02-18T04:49:35;9.10;99.90
13585;DHT22;6863;48.402;9.994;2023-02-18T04:52:01;9.00;99.90
13585;DHT22;6863;48.402;9.994;2023-02-18T04:54:27;9.00;99.90
13585;DHT22;6863;48.402;9.994;2023-02-18T04:56:52;9.00;99.90
13585;DHT22;6863;48.402;9.994;2023-02-18T04:59:18;8.90;99.90
13585;DHT22;6863;48.402;9.994;2023-02-18T05:01:44;8.90;99.90
13585;DHT22;6863;48.402;9.994;2023-02-18T05:04:09;8.90;99.90
13585;DHT22;6863;48.402;9.994;2023-02-18T05:06:35;8.80;99.90
13585;DHT22;6863;48.402;9.994;2023-02-18T05:09:02;8.80;99.90
13585;DHT22;6863;48.402;9.994;2023-02-18T05:11:28;8.80;99.90
13585;DHT22;6863;48.402;9.994;2023-02-18T05:13:53;8.70;99.90
13585;DHT22;6863;48.402;9.994;2023-02-18T05:16:19;8.70;99.90
13585;DHT22;6863;48.402;9.994;2023-02-18T05:18:44;8.70;99.90
13585;DHT22;6863;48.402;9.994;2023-02-18T05:21:10;8.60;99.90
13585;DHT22;6863;48.402;9.994;2023-02-18T05:23:36;8.60;99.90
13585;DHT22;6863;48.402;9.994;2023-02-18T05:26:02;8.60;99.90
13585;DHT22;6863;48.402;9.994;2023-02-18T05:28:28;8.60;99.90
13585;DHT22;6863;48.402;9.994;2023-02-18T05:30:53;8.60;99.90
13585;DHT22;6863;48.402;9.994;2023-02-18T05:33:19;8.60;99.90
13585;DHT22;6863;48.402;9.994;2023-02-18T05:35:45;8.60;99.90
13585;DHT22;6863;48.402;9.994;2023-02-18T05:38:10;8.60;99.90
13585;DHT22;6863;48.402;9.994;2023-02-18T05:40:37;8.70;99.90
13585;DHT22;6863;48.402;9.994;2023-02-18T05:43:03;8.70;99.90
13585;DHT22;6863;48.402;9.994;2023-02-18T05:45:29;8.70;99.90
13585;DHT22;6863;48.402;9.994;2023-02-18T05:47:54;8.70;99.90
13585;DHT22;6863;48.402;9.994;2023-02-18T05:50:20;8.80;99.90
13585;DHT22;6863;48.402;9.994;2023-02-18T05:52:46;8.80;99.90
13585;DHT22;6863;48.402;9.994;2023-02-18T05:55:11;8.80;99.90
13585;DHT22;6863;48.402;9.994;2023-02-18T05:57:37;8.80;99.90
13585;DHT22;6863;48.402;9.994;2023-02-18T06:00:04;8.80;99.90
13585;DHT22;6863;48.402;9.994;2023-02-18T06:02:30;8.80;99.90
13585;DHT22;6863;48.402;9.994;2023-02-18T06:04:56;8.80;99.90
13585;DHT22;6863;48.402;9.994;2023-02-18T06:07:21;8.80;99.90
13585;DHT22;6863;48.402;9.994;2023-02-18T06:09:47;8.80;99.90
13585;DHT22;6863;48.402;9.994;2023-02-18T06:12:13;8.80;99.90
13585;DHT22;6863;48.402;9.994;2023-02-18T06:14:38;8.90;99.90
13585;DHT22;6863;48.402;9.994;2023-02-18T06:17:07;8.90;99.90
13585;DHT22;6863;48.402;9.994;2023-02-18T06:19:34;9.00;99.90
13585;DHT22;6863;48.402;9.994;2023-02-18T06:21:59;9.00;99.90
13585;DHT22;6863;48.402;9.994;2023-02-18T06:24:25;9.00;99.90
13585;DHT22;6863;48.402;9.994;2023-02-18T06:26:51;9.10;99.90
13585;DHT22;6863;48.402;9.994;2023-02-18T06:29:16;9.10;99.90
13585;DHT22;6863;48.402;9.994;2023-02-18T06:31:42;9.10;99.90
13585;DHT22;6863;48.402;9.994;2023-02-18T06:34:07;9.10;99.90
13585;DHT22;6863;48.402;9.994;2023-02-18T06:36:33;9.20;99.90
13585;DHT22;6863;48.402;9.994;2023-02-18T06:39:01;9.20;99.90
13585;DHT22;6863;48.402;9.994;2023-02-18T06:41:26;9.30;99.90
13585;DHT22;6863;48.402;9.994;2023-02-18T06:43:52;9.30;99.90
13585;DHT22;6863;48.402;9.994;2023-02-18T06:46:18;9.30;99.90
13585;DHT22;6863;48.402;9.994;2023-02-18T06:48:43;9.30;99.90
13585;DHT22;6863;48.402;9.994;2023-02-18T06:51:09;9.40;99.90
13585;DHT22;6863;48.402;9.994;2023-02-18T06:53:35;9.40;99.90
13585;DHT22;6863;48.402;9.994;2023-02-18T06:56:00;9.40;99.90
13585;DHT22;6863;48.402;9.994;2023-02-18T06:58:26;9.40;99.90
13585;DHT22;6863;48.402;9.994;2023-02-18T07:00:51;9.50;99.90
13585;DHT22;6863;48.402;9.994;2023-02-18T07:03:17;9.50;99.90
13585;DHT22;6863;48.402;9.994;2023-02-18T07:05:43;9.50;99.90
13585;DHT22;6863;48.402;9.994;2023-02-18T07:08:08;9.60;99.90
13585;DHT22;6863;48.402;9.994;2023-02-18T07:10:34;9.60;99.90
13585;DHT22;6863;48.402;9.994;2023-02-18T07:13:00;9.60;99.90
13585;DHT22;6863;48.402;9.994;2023-02-18T07:15:25;9.60;99.90
13585;DHT22;6863;48.402;9.994;2023-02-18T07:17:53;9.70;99.90
13585;DHT22;6863;48.402;9.994;2023-02-18T07:20:20;9.70;99.90
13585;DHT22;6863;48.402;9.994;2023-02-18T07:22:46;9.80;99.90
13585;DHT22;6863;48.402;9.994;2023-02-18T07:25:12;9.80;99.90
13585;DHT22;6863;48.402;9.994;2023-02-18T07:27:38;9.80;99.90
13585;DHT22;6863;48.402;9.994;2023-02-18T07:30:04;9.90;99.90
13585;DHT22;6863;48.402;9.994;2023-02-18T07:32:30;9.90;99.90
13585;DHT22;6863;48.402;9.994;2023-02-18T07:34:56;9.90;99.90
13585;DHT22;6863;48.402;9.994;2023-02-18T07:37:22;9.90;99.90
13585;DHT22;6863;48.402;9.994;2023-02-18T07:39:47;10.00;99.90
13585;DHT22;6863;48.402;9.994;2023-02-18T07:42:13;10.00;99.90
13585;DHT22;6863;48.402;9.994;2023-02-18T07:44:39;10.10;99.90
13585;DHT22;6863;48.402;9.994;2023-02-18T07:47:06;10.10;99.90
13585;DHT22;6863;48.402;9.994;2023-02-18T07:49:33;10.20;99.90
13585;DHT22;6863;48.402;9.994;2023-02-18T07:52:00;10.30;99.90
13585;DHT22;6863;48.402;9.994;2023-02-18T07:54:26;10.30;99.90
13585;DHT22;6863;48.402;9.994;2023-02-18T07:56:52;10.30;99.90
13585;DHT22;6863;48.402;9.994;2023-02-18T07:59:19;10.30;99.90
13585;DHT22;6863;48.402;9.994;2023-02-18T08:01:45;10.30;99.90
13585;DHT22;6863;48.402;9.994;2023-02-18T08:04:11;10.40;99.90
13585;DHT22;6863;48.402;9.994;2023-02-18T08:06:40;10.40;99.90
13585;DHT22;6863;48.402;9.994;2023-02-18T08:09:06;10.40;99.90
13585;DHT22;6863;48.402;9.994;2023-02-18T08:11:32;10.40;99.90
13585;DHT22;6863;48.402;9.994;2023-02-18T08:13:58;10.40;99.90
13585;DHT22;6863;48.402;9.994;2023-02-18T08:16:24;10.70;99.90
13585;DHT22;6863;48.402;9.994;2023-02-18T08:18:51;11.20;99.90
13585;DHT22;6863;48.402;9.994;2023-02-18T08:21:19;11.30;99.90
13585;DHT22;6863;48.402;9.994;2023-02-18T08:23:45;11.20;99.90
13585;DHT22;6863;48.402;9.994;2023-02-18T08:26:12;11.10;99.90
13585;DHT22;6863;48.402;9.994;2023-02-18T08:28:37;11.20;99.90
13585;DHT22;6863;48.402;9.994;2023-02-18T08:31:03;11.20;99.90
13585;DHT22;6863;48.402;9.994;2023-02-18T08:33:29;11.10;99.90
13585;DHT22;6863;48.402;9.994;2023-02-18T08:35:55;11.00;99.90
13585;DHT22;6863;48.402;9.994;2023-02-18T08:38:22;11.00;99.90
13585;DHT22;6863;48.402;9.994;2023-02-18T08:40:59;11.00;99.90
13585;DHT22;6863;48.402;9.994;2023-02-18T08:43:25;11.20;99.90
13585;DHT22;6863;48.402;9.994;2023-02-18T08:45:50;11.40;99.90
13585;DHT22;6863;48.402;9.994;2023-02-18T08:48:16;11.60;99.90
13585;DHT22;6863;48.402;9.994;2023-02-18T08:50:42;11.60;99.90
13585;DHT22;6863;48.402;9.994;2023-02-18T08:53:07;11.80;99.90
13585;DHT22;6863;48.402;9.994;2023-02-18T08:55:33;11.60;99.90
13585;DHT22;6863;48.402;9.994;2023-02-18T08:58:00;11.60;99.90
13585;DHT22;6863;48.402;9.994;2023-02-18T09:00:26;11.60;99.90
13585;DHT22;6863;48.402;9.994;2023-02-18T09:02:51;11.60;99.90
13585;DHT22;6863;48.402;9.994;2023-02-18T09:05:17;11.70;99.90
13585;DHT22;6863;48.402;9.994;2023-02-18T09:07:43;11.80;99.90
13585;DHT22;6863;48.402;9.994;2023-02-18T09:10:09;11.90;99.90
13585;DHT22;6863;48.402;9.994;2023-02-18T09:12:35;11.90;99.90
13585;DHT22;6863;48.402;9.994;2023-02-18T09:15:01;11.90;99.90
13585;DHT22;6863;48.402;9.994;2023-02-18T09:17:28;12.00;99.90
13585;DHT22;6863;48.402;9.994;2023-02-18T09:19:53;12.20;99.90
13585;DHT22;6863;48.402;9.994;2023-02-18T09:22:20;12.30;99.90
13585;DHT22;6863;48.402;9.994;2023-02-18T09:24:45;12.40;99.90
13585;DHT22;6863;48.402;9.994;2023-02-18T09:27:11;12.40;99.90
13585;DHT22;6863;48.402;9.994;2023-02-18T09:29:38;12.40;99.90
13585;DHT22;6863;48.402;9.994;2023-02-18T09:32:05;12.30;99.90
13585;DHT22;6863;48.402;9.994;2023-02-18T09:34:31;12.40;99.90
13585;DHT22;6863;48.402;9.994;2023-02-18T09:36:56;12.20;99.90
13585;DHT22;6863;48.402;9.994;2023-02-18T09:39:26;12.20;99.90
13585;DHT22;6863;48.402;9.994;2023-02-18T09:44:27;12.30;99.90
13585;DHT22;6863;48.402;9.994;2023-02-18T09:47:04;12.50;99.90
13585;DHT22;6863;48.402;9.994;2023-02-18T09:49:34;12.70;99.90
13585;DHT22;6863;48.402;9.994;2023-02-18T09:52:18;12.80;99.90
13585;DHT22;6863;48.402;9.994;2023-02-18T09:54:45;13.00;99.90
13585;DHT22;6863;48.402;9.994;2023-02-18T09:57:26;13.10;99.90
13585;DHT22;6863;48.402;9.994;2023-02-18T09:59:58;13.00;99.90
13585;DHT22;6863;48.402;9.994;2023-02-18T10:02:26;13.40;99.90
13585;DHT22;6863;48.402;9.994;2023-02-18T10:04:52;13.90;99.30
13585;DHT22;6863;48.402;9.994;2023-02-18T10:07:31;14.50;98.30
13585;DHT22;6863;48.402;9.994;2023-02-18T10:10:02;15.10;96.80
13585;DHT22;6863;48.402;9.994;2023-02-18T10:12:31;15.00;96.40
13585;DHT22;6863;48.402;9.994;2023-02-18T10:14:59;14.50;97.00
13585;DHT22;6863;48.402;9.994;2023-02-18T10:17:28;14.50;97.30
13585;DHT22;6863;48.402;9.994;2023-02-18T10:19:55;14.10;97.40
13585;DHT22;6863;48.402;9.994;2023-02-18T10:22:24;13.90;97.90
13585;DHT22;6863;48.402;9.994;2023-02-18T10:24:58;14.20;97.60
13585;DHT22;6863;48.402;9.994;2023-02-18T10:27:34;14.40;97.30
13585;DHT22;6863;48.402;9.994;2023-02-18T10:30:32;14.80;96.70
13585;DHT22;6863;48.402;9.994;2023-02-18T10:35:52;14.30;97.00
13585;DHT22;6863;48.402;9.994;2023-02-18T10:52:17;14.50;96.30
13585;DHT22;6863;48.402;9.994;2023-02-18T10:55:14;14.20;96.60
13585;DHT22;6863;48.402;9.994;2023-02-18T10:57:58;14.30;96.50
13585;DHT22;6863;48.402;9.994;2023-02-18T11:00:25;14.50;96.60
13585;DHT22;6863;48.402;9.994;2023-02-18T11:05:37;14.50;95.70
13585;DHT22;6863;48.402;9.994;2023-02-18T11:08:07;14.30;96.10
13585;DHT22;6863;48.402;9.994;2023-02-18T11:10:38;14.20;96.50
13585;DHT22;6863;48.402;9.994;2023-02-18T11:13:08;14.80;96.00
13585;DHT22;6863;48.402;9.994;2023-02-18T11:15:35;14.80;95.70
13585;DHT22;6863;48.402;9.994;2023-02-18T11:18:40;14.60;95.80
13585;DHT22;6863;48.402;9.994;2023-02-18T11:21:31;14.60;95.80
13585;DHT22;6863;48.402;9.994;2023-02-18T11:24:07;14.60;95.70
13585;DHT22;6863;48.402;9.994;2023-02-18T11:26:35;14.40;96.00
13585;DHT22;6863;48.402;9.994;2023-02-18T11:29:22;14.20;96.50
13585;DHT22;6863;48.402;9.994;2023-02-18T11:31:53;14.50;96.20
13585;DHT22;6863;48.402;9.994;2023-02-18T11:34:23;15.00;95.60
13585;DHT22;6863;48.402;9.994;2023-02-18T11:36:51;15.00;94.80
13585;DHT22;6863;48.402;9.994;2023-02-18T11:39:26;14.50;95.60
13585;DHT22;6863;48.402;9.994;2023-02-18T11:44:29;14.20;96.50
13585;DHT22;6863;48.402;9.994;2023-02-18T11:52:52;14.50;96.00
13585;DHT22;6863;48.402;9.994;2023-02-18T11:55:27;14.70;95.80
13585;DHT22;6863;48.402;9.994;2023-02-18T11:58:00;14.80;95.40
13585;DHT22;6863;48.402;9.994;2023-02-18T12:00:36;15.00;95.00
13585;DHT22;6863;48.402;9.994;2023-02-18T12:03:17;15.00;94.80
13585;DHT22;6863;48.402;9.994;2023-02-18T12:05:47;15.00;95.10
13585;DHT22;6863;48.402;9.994;2023-02-18T12:08:19;15.50;94.20
13585;DHT22;6863;48.402;9.994;2023-02-18T12:13:30;16.60;92.00
13585;DHT22;6863;48.402;9.994;2023-02-18T12:21:53;16.70;90.90
13585;DHT22;6863;48.402;9.994;2023-02-18T12:33:07;16.10;92.30
13585;DHT22;6863;48.402;9.994;2023-02-18T12:35:43;16.10;92.10
13585;DHT22;6863;48.402;9.994;2023-02-18T12:38:52;17.60;89.70
13585;DHT22;6863;48.402;9.994;2023-02-18T12:44:26;16.30;90.00
13585;DHT22;6863;48.402;9.994;2023-02-18T12:49:44;17.70;81.90
13585;DHT22;6863;48.402;9.994;2023-02-18T12:55:29;16.60;81.00
13585;DHT22;6863;48.402;9.994;2023-02-18T12:58:17;16.30;82.30
13585;DHT22;6863;48.402;9.994;2023-02-18T13:12:37;16.30;79.60
13585;DHT22;6863;48.402;9.994;2023-02-18T13:17:38;15.80;78.20
13585;DHT22;6863;48.402;9.994;2023-02-18T13:20:22;16.10;79.10
13585;DHT22;6863;48.402;9.994;2023-02-18T13:22:51;17.00;76.10
13585;DHT22;6863;48.402;9.994;2023-02-18T13:25:18;18.30;72.30
13585;DHT22;6863;48.402;9.994;2023-02-18T13:27:50;17.30;71.90
13585;DHT22;6863;48.402;9.994;2023-02-18T13:30:32;16.50;74.40
13585;DHT22;6863;48.402;9.994;2023-02-18T13:36:01;18.50;68.50
13585;DHT22;6863;48.402;9.994;2023-02-18T13:41:07;18.70;67.60
13585;DHT22;6863;48.402;9.994;2023-02-18T13:43:34;18.80;65.70
13585;DHT22;6863;48.402;9.994;2023-02-18T13:51:39;21.10;58.40
13585;DHT22;6863;48.402;9.994;2023-02-18T13:56:51;21.00;57.50
13585;DHT22;6863;48.402;9.994;2023-02-18T13:59:32;21.40;55.10
13585;DHT22;6863;48.402;9.994;2023-02-18T14:12:38;17.60;61.40
13585;DHT22;6863;48.402;9.994;2023-02-18T14:20:32;15.80;68.10
13585;DHT22;6863;48.402;9.994;2023-02-18T14:36:57;14.50;75.50
13585;DHT22;6863;48.402;9.994;2023-02-18T14:49:53;14.30;78.50
13585;DHT22;6863;48.402;9.994;2023-02-18T14:52:32;14.20;78.30
13585;DHT22;6863;48.402;9.994;2023-02-18T14:55:00;14.20;78.90
13585;DHT22;6863;48.402;9.994;2023-02-18T14:57:45;14.20;79.20
13585;DHT22;6863;48.402;9.994;2023-02-18T15:00:20;14.10;79.40
13585;DHT22;6863;48.402;9.994;2023-02-18T15:02:52;14.00;80.00
13585;DHT22;6863;48.402;9.994;2023-02-18T15:05:25;13.80;81.40
13585;DHT22;6863;48.402;9.994;2023-02-18T15:07:58;13.60;81.80
13585;DHT22;6863;48.402;9.994;2023-02-18T15:10:45;13.50;82.60
13585;DHT22;6863;48.402;9.994;2023-02-18T15:13:24;13.50;83.40
13585;DHT22;6863;48.402;9.994;2023-02-18T15:15:54;13.40;83.90
13585;DHT22;6863;48.402;9.994;2023-02-18T15:18:28;13.30;85.10
13585;DHT22;6863;48.402;9.994;2023-02-18T15:20:55;13.30;85.70
13585;DHT22;6863;48.402;9.994;2023-02-18T15:23:21;13.30;86.00
13585;DHT22;6863;48.402;9.994;2023-02-18T15:25:52;13.30;86.20
13585;DHT22;6863;48.402;9.994;2023-02-18T15:28:32;13.30;85.90
13585;DHT22;6863;48.402;9.994;2023-02-18T15:30:59;13.20;86.10
13585;DHT22;6863;48.402;9.994;2023-02-18T15:33:26;13.10;86.50
13585;DHT22;6863;48.402;9.994;2023-02-18T15:36:02;13.20;86.80
13585;DHT22;6863;48.402;9.994;2023-02-18T15:38:28;13.30;86.70
13585;DHT22;6863;48.402;9.994;2023-02-18T15:40:54;13.20;86.80
13585;DHT22;6863;48.402;9.994;2023-02-18T15:43:26;13.30;87.20
13585;DHT22;6863;48.402;9.994;2023-02-18T15:45:55;13.30;87.30
13585;DHT22;6863;48.402;9.994;2023-02-18T15:48:31;13.30;87.70
13585;DHT22;6863;48.402;9.994;2023-02-18T15:51:04;13.20;87.70
13585;DHT22;6863;48.402;9.994;2023-02-18T15:53:31;13.20;87.80
13585;DHT22;6863;48.402;9.994;2023-02-18T15:56:06;13.20;88.40
13585;DHT22;6863;48.402;9.994;2023-02-18T15:58:34;13.10;88.80
13585;DHT22;6863;48.402;9.994;2023-02-18T16:01:05;13.00;89.10
13585;DHT22;6863;48.402;9.994;2023-02-18T16:06:27;12.80;89.90
13585;DHT22;6863;48.402;9.994;2023-02-18T16:11:43;12.70;90.80
13585;DHT22;6863;48.402;9.994;2023-02-18T16:14:45;12.70;90.60
13585;DHT22;6863;48.402;9.994;2023-02-18T16:22:52;12.60;91.10
13585;DHT22;6863;48.402;9.994;2023-02-18T16:25:43;12.60;91.20
13585;DHT22;6863;48.402;9.994;2023-02-18T16:28:22;12.50;91.40
13585;DHT22;6863;48.402;9.994;2023-02-18T16:30:48;12.50;91.60
13585;DHT22;6863;48.402;9.994;2023-02-18T16:33:14;12.50;91.70
13585;DHT22;6863;48.402;9.994;2023-02-18T16:35:40;12.40;91.80
13585;DHT22;6863;48.402;9.994;2023-02-18T16:38:06;12.30;92.10
13585;DHT22;6863;48.402;9.994;2023-02-18T16:40:36;12.30;92.20
13585;DHT22;6863;48.402;9.994;2023-02-18T16:43:24;12.30;92.30
13585;DHT22;6863;48.402;9.994;2023-02-18T16:45:54;12.20;92.80
13585;DHT22;6863;48.402;9.994;2023-02-18T16:48:29;12.20;92.70
13585;DHT22;6863;48.402;9.994;2023-02-18T16:50:56;12.10;92.80
13585;DHT22;6863;48.402;9.994;2023-02-18T16:53:24;12.10;92.90
13585;DHT22;6863;48.402;9.994;2023-02-18T16:55:49;12.10;92.80
13585;DHT22;6863;48.402;9.994;2023-02-18T16:58:15;12.10;92.70
13585;DHT22;6863;48.402;9.994;2023-02-18T17:00:43;12.00;92.80
13585;DHT22;6863;48.402;9.994;2023-02-18T17:03:09;12.00;93.00
13585;DHT22;6863;48.402;9.994;2023-02-18T17:05:35;12.00;93.20
13585;DHT22;6863;48.402;9.994;2023-02-18T17:08:22;11.90;93.20
13585;DHT22;6863;48.402;9.994;2023-02-18T17:10:50;12.00;93.10
13585;DHT22;6863;48.402;9.994;2023-02-18T17:13:18;11.90;93.10
13585;DHT22;6863;48.402;9.994;2023-02-18T17:15:45;11.90;93.20
13585;DHT22;6863;48.402;9.994;2023-02-18T17:18:11;11.90;93.30
13585;DHT22;6863;48.402;9.994;2023-02-18T17:20:37;11.90;93.40
13585;DHT22;6863;48.402;9.994;2023-02-18T17:23:03;11.90;93.50
13585;DHT22;6863;48.402;9.994;2023-02-18T17:25:39;11.80;93.60
13585;DHT22;6863;48.402;9.994;2023-02-18T17:28:05;11.80;93.80
13585;DHT22;6863;48.402;9.994;2023-02-18T17:30:35;11.70;94.00
13585;DHT22;6863;48.402;9.994;2023-02-18T17:33:02;11.70;94.30
13585;DHT22;6863;48.402;9.994;2023-02-18T17:35:28;11.60;94.50
13585;DHT22;6863;48.402;9.994;2023-02-18T17:37:54;11.60;94.80
13585;DHT22;6863;48.402;9.994;2023-02-18T17:40:22;11.60;94.90
13585;DHT22;6863;48.402;9.994;2023-02-18T17:42:49;11.50;95.00
13585;DHT22;6863;48.402;9.994;2023-02-18T17:45:30;11.50;95.30
13585;DHT22;6863;48.402;9.994;2023-02-18T17:47:58;11.50;95.30
13585;DHT22;6863;48.402;9.994;2023-02-18T17:50:25;11.50;95.30
13585;DHT22;6863;48.402;9.994;2023-02-18T17:52:51;11.50;95.20
13585;DHT22;6863;48.402;9.994;2023-02-18T17:55:31;11.50;95.20
13585;DHT22;6863;48.402;9.994;2023-02-18T17:57:58;11.60;95.20
13585;DHT22;6863;48.402;9.994;2023-02-18T18:00:33;11.50;95.20
13585;DHT22;6863;48.402;9.994;2023-02-18T18:02:59;11.50;95.20
13585;DHT22;6863;48.402;9.994;2023-02-18T18:05:28;11.50;95.20
13585;DHT22;6863;48.402;9.994;2023-02-18T18:07:55;11.50;95.40
13585;DHT22;6863;48.402;9.994;2023-02-18T18:10:23;11.50;95.40
13585;DHT22;6863;48.402;9.994;2023-02-18T18:13:01;11.50;95.40
13585;DHT22;6863;48.402;9.994;2023-02-18T18:15:32;11.50;95.40
13585;DHT22;6863;48.402;9.994;2023-02-18T18:18:01;11.50;95.60
13585;DHT22;6863;48.402;9.994;2023-02-18T18:20:28;11.40;95.50
13585;DHT22;6863;48.402;9.994;2023-02-18T18:22:58;11.40;95.60
13585;DHT22;6863;48.402;9.994;2023-02-18T18:25:31;11.40;95.60
13585;DHT22;6863;48.402;9.994;2023-02-18T18:28:01;11.40;95.60
13585;DHT22;6863;48.402;9.994;2023-02-18T18:30:29;11.40;95.70
13585;DHT22;6863;48.402;9.994;2023-02-18T18:32:56;11.40;95.70
13585;DHT22;6863;48.402;9.994;2023-02-18T18:35:27;11.40;95.80
13585;DHT22;6863;48.402;9.994;2023-02-18T18:37:53;11.30;95.90
13585;DHT22;6863;48.402;9.994;2023-02-18T18:40:21;11.30;95.90
13585;DHT22;6863;48.402;9.994;2023-02-18T18:42:48;11.30;96.00
13585;DHT22;6863;48.402;9.994;2023-02-18T18:45:22;11.20;96.00
13585;DHT22;6863;48.402;9.994;2023-02-18T18:47:50;11.30;96.10
13585;DHT22;6863;48.402;9.994;2023-02-18T18:50:16;11.30;96.20
13585;DHT22;6863;48.402;9.994;2023-02-18T18:52:43;11.20;96.30
13585;DHT22;6863;48.402;9.994;2023-02-18T18:55:27;11.20;96.30
13585;DHT22;6863;48.402;9.994;2023-02-18T18:57:54;11.30;96.40
13585;DHT22;6863;48.402;9.994;2023-02-18T19:00:24;11.20;96.50